createdAt,value
2023-03-12T00:01:17.188Z,1.73
2023-03-12T00:03:44.868Z,1.83
2023-03-12T00:06:12.675Z,1.55
2023-03-12T00:08:40.459Z,2.03
2023-03-12T00:11:09.986Z,4.05
2023-03-12T00:13:37.678Z,1.45
2023-03-12T00:16:10.768Z,2.40
2023-03-12T00:18:38.136Z,2.22
2023-03-12T00:21:06.389Z,1.42
2023-03-12T00:23:33.556Z,2.47
2023-03-12T00:26:08.836Z,1.50
2023-03-12T00:28:36.407Z,2.42
2023-03-12T00:31:13.175Z,1.83
2023-03-12T00:33:40.259Z,2.05
2023-03-12T00:36:08.033Z,1.40
2023-03-12T00:38:35.206Z,2.67
2023-03-12T00:41:02.593Z,1.10
2023-03-12T00:43:29.640Z,1.55
2023-03-12T00:45:56.849Z,2.55
2023-03-12T00:48:24.012Z,1.17
2023-03-12T00:50:51.201Z,2.08
2023-03-12T00:53:18.327Z,1.98
2023-03-12T00:55:45.625Z,1.33
2023-03-12T00:58:12.883Z,1.80
2023-03-12T01:00:40.152Z,1.35
2023-03-12T01:03:07.658Z,1.30
2023-03-12T01:05:37.969Z,1.38
2023-03-12T01:08:05.681Z,1.95
2023-03-12T01:10:33.056Z,1.40
2023-03-12T01:13:00.237Z,1.30
2023-03-12T01:15:27.864Z,1.13
2023-03-12T01:17:54.997Z,2.00
2023-03-12T01:20:23.304Z,2.20
2023-03-12T01:22:51.562Z,1.73
2023-03-12T01:25:18.883Z,1.67
2023-03-12T01:27:46.361Z,2.17
2023-03-12T01:30:14.450Z,2.45
2023-03-12T01:32:41.940Z,1.88
2023-03-12T01:35:09.594Z,2.05
2023-03-12T01:37:36.649Z,2.10
2023-03-12T01:40:04.618Z,2.08
2023-03-12T01:42:31.799Z,4.38
2023-03-12T01:45:01.548Z,1.98
2023-03-12T01:47:32.147Z,2.53
2023-03-12T01:50:01.623Z,2.42
2023-03-12T01:52:38.401Z,2.30
2023-03-12T01:55:16.467Z,2.30
2023-03-12T01:57:55.308Z,2.53
2023-03-12T02:00:26.057Z,2.22
2023-03-12T02:03:02.224Z,1.77
2023-03-12T02:05:56.812Z,2.20
2023-03-12T02:08:24.757Z,1.48
2023-03-12T02:10:51.891Z,1.95
2023-03-12T02:13:19.297Z,1.58
2023-03-12T02:15:48.234Z,1.33
2023-03-12T02:18:21.598Z,3.20
2023-03-12T02:20:59.113Z,1.95
2023-03-12T02:23:36.124Z,2.92
2023-03-12T02:26:05.710Z,1.75
2023-03-12T02:28:42.482Z,2.35
2023-03-12T02:31:18.199Z,1.88
2023-03-12T02:33:45.382Z,2.42
2023-03-12T02:36:12.702Z,2.33
2023-03-12T02:38:49.801Z,2.53
2023-03-12T02:41:20.310Z,2.90
2023-03-12T02:44:05.652Z,3.03
2023-03-12T02:46:39.690Z,3.20
2023-03-12T02:49:06.857Z,3.53
2023-03-12T02:51:34.040Z,3.15
2023-03-12T02:54:01.253Z,3.95
2023-03-12T02:56:29.347Z,2.47
2023-03-12T02:58:56.413Z,2.95
2023-03-12T03:01:24.504Z,3.20
2023-03-12T03:03:51.821Z,3.13
2023-03-12T03:06:19.068Z,2.63
2023-03-12T03:08:46.193Z,2.95
2023-03-12T03:11:13.378Z,3.20
2023-03-12T03:13:41.101Z,3.30
2023-03-12T03:16:08.934Z,3.13
2023-03-12T03:18:36.057Z,3.65
2023-03-12T03:21:06.234Z,2.88
2023-03-12T03:23:34.945Z,3.78
2023-03-12T03:26:02.401Z,3.45
2023-03-12T03:28:30.532Z,3.15
2023-03-12T03:31:00.929Z,3.60
2023-03-12T03:33:34.674Z,2.60
2023-03-12T03:36:03.133Z,2.53
2023-03-12T03:38:34.822Z,2.78
2023-03-12T03:41:03.851Z,2.45
2023-03-12T03:43:33.269Z,3.22
2023-03-12T03:46:05.418Z,3.45
2023-03-12T03:48:36.429Z,2.97
2023-03-12T03:51:05.922Z,4.03
2023-03-12T03:53:35.409Z,2.13
2023-03-12T03:56:20.924Z,2.80
2023-03-12T03:58:50.401Z,2.42
2023-03-12T04:01:20.268Z,2.40
2023-03-12T04:03:48.468Z,2.67
2023-03-12T04:06:15.615Z,2.30
2023-03-12T04:08:43.027Z,4.20
2023-03-12T04:11:17.193Z,3.13
2023-03-12T04:13:44.951Z,3.17
2023-03-12T04:16:14.643Z,3.75
2023-03-12T04:18:43.156Z,3.15
2023-03-12T04:21:13.301Z,4.60
2023-03-12T04:23:41.469Z,3.47
2023-03-12T04:26:10.326Z,3.70
2023-03-12T04:28:38.106Z,3.33
2023-03-12T04:31:08.447Z,5.43
2023-03-12T04:33:43.134Z,3.70
2023-03-12T04:36:13.338Z,3.22
2023-03-12T04:38:43.484Z,3.00
2023-03-12T04:41:15.452Z,3.22
2023-03-12T04:43:53.684Z,3.28
2023-03-12T04:46:22.157Z,3.92
2023-03-12T04:48:49.298Z,3.90
2023-03-12T04:51:17.100Z,3.47
2023-03-12T04:53:44.498Z,3.35
2023-03-12T04:56:13.215Z,3.65
2023-03-12T04:58:41.756Z,3.65
2023-03-12T05:01:24.136Z,3.15
2023-03-12T05:03:51.829Z,2.58
2023-03-12T05:06:19.840Z,2.72
2023-03-12T05:08:48.105Z,2.20
2023-03-12T05:11:15.781Z,2.60
2023-03-12T05:13:43.334Z,2.38
2023-03-12T05:16:11.738Z,2.65
2023-03-12T05:18:39.795Z,2.97
2023-03-12T05:21:12.388Z,2.50
2023-03-12T05:23:42.628Z,3.10
2023-03-12T05:26:22.229Z,2.72
2023-03-12T05:28:50.636Z,2.38
2023-03-12T05:31:19.713Z,2.63
2023-03-12T05:33:47.476Z,2.45
2023-03-12T05:36:15.514Z,2.13
2023-03-12T05:38:45.329Z,2.92
2023-03-12T05:41:26.145Z,2.50
2023-03-12T05:43:57.976Z,2.53
2023-03-12T05:46:26.914Z,2.67
2023-03-12T05:48:54.739Z,2.50
2023-03-12T05:51:22.490Z,2.95
2023-03-12T05:53:49.758Z,2.53
2023-03-12T05:56:18.666Z,2.22
2023-03-12T05:58:48.888Z,2.67
2023-03-12T06:01:24.286Z,2.90
2023-03-12T06:03:52.711Z,2.50
2023-03-12T06:06:20.376Z,3.78
2023-03-12T06:08:47.880Z,2.67
2023-03-12T06:11:15.253Z,2.20
2023-03-12T06:13:42.825Z,2.47
2023-03-12T06:16:17.852Z,2.50
2023-03-12T06:21:18.468Z,2.30
2023-03-12T06:23:47.385Z,2.28
2023-03-12T06:26:21.151Z,2.65
2023-03-12T06:28:49.375Z,2.67
2023-03-12T06:31:17.226Z,2.40
2023-03-12T06:33:44.489Z,2.47
2023-03-12T06:36:12.277Z,2.35
2023-03-12T06:38:39.898Z,2.22
2023-03-12T06:41:16.317Z,1.80
2023-03-12T06:43:44.670Z,1.98
2023-03-12T06:46:14.496Z,2.80
2023-03-12T06:48:41.862Z,2.40
2023-03-12T06:51:09.890Z,2.25
2023-03-12T06:53:38.828Z,2.28
2023-03-12T06:56:08.345Z,2.75
2023-03-12T06:58:35.431Z,2.22
2023-03-12T07:01:02.587Z,2.20
2023-03-12T07:03:29.775Z,1.70
2023-03-12T07:05:58.054Z,2.33
2023-03-12T07:08:26.205Z,2.67
2023-03-12T07:10:53.277Z,2.58
2023-03-12T07:13:20.357Z,2.28
2023-03-12T07:15:47.513Z,2.35
2023-03-12T07:18:14.880Z,3.28
2023-03-12T07:20:43.765Z,2.20
2023-03-12T07:23:11.652Z,3.75
2023-03-12T07:25:40.948Z,2.13
2023-03-12T07:28:09.357Z,2.30
2023-03-12T07:30:37.194Z,2.65
2023-03-12T07:33:07.100Z,2.05
2023-03-12T07:35:34.401Z,2.38
2023-03-12T07:38:02.776Z,2.42
2023-03-12T07:40:29.871Z,2.97
2023-03-12T07:42:57.305Z,2.30
2023-03-12T07:45:25.032Z,2.15
2023-03-12T07:47:52.453Z,2.85
2023-03-12T07:50:19.920Z,2.00
2023-03-12T07:52:47.245Z,2.58
2023-03-12T07:55:14.727Z,2.40
2023-03-12T07:57:42.189Z,2.40
2023-03-12T08:00:10.637Z,1.95
2023-03-12T08:02:41.084Z,1.88
2023-03-12T08:05:09.146Z,2.33
2023-03-12T08:07:36.438Z,2.25
2023-03-12T08:10:06.265Z,2.40
2023-03-12T08:12:33.570Z,2.65
2023-03-12T08:15:00.946Z,2.13
2023-03-12T08:17:28.007Z,3.25
2023-03-12T08:19:55.093Z,2.30
2023-03-12T08:22:22.353Z,2.78
2023-03-12T08:24:49.430Z,2.05
2023-03-12T08:27:16.584Z,2.42
2023-03-12T08:29:43.654Z,3.13
2023-03-12T08:32:11.101Z,2.13
2023-03-12T08:34:38.306Z,1.75
2023-03-12T08:37:06.266Z,1.60
2023-03-12T08:39:33.899Z,2.20
2023-03-12T08:42:01.119Z,2.40
2023-03-12T08:44:28.605Z,2.50
2023-03-12T08:46:55.928Z,2.47
2023-03-12T08:49:23.428Z,2.42
2023-03-12T08:51:53.724Z,2.20
2023-03-12T08:54:21.625Z,2.40
2023-03-12T08:56:52.932Z,2.40
2023-03-12T08:59:21.143Z,2.30
2023-03-12T09:01:48.702Z,3.08
2023-03-12T09:04:16.761Z,2.28
2023-03-12T09:06:44.520Z,3.60
2023-03-12T09:09:11.840Z,2.88
2023-03-12T09:11:42.659Z,2.53
2023-03-12T09:16:58.345Z,1.90
2023-03-12T09:19:25.502Z,2.30
2023-03-12T09:21:52.560Z,1.90
2023-03-12T09:24:19.934Z,2.35
2023-03-12T09:26:47.666Z,1.80
2023-03-12T09:29:14.720Z,1.70
2023-03-12T09:31:41.805Z,2.30
2023-03-12T09:34:08.850Z,2.42
2023-03-12T09:36:36.113Z,1.95
2023-03-12T09:39:03.857Z,2.10
2023-03-12T09:41:35.926Z,2.33
2023-03-12T09:44:08.130Z,2.28
2023-03-12T09:46:39.133Z,1.98
2023-03-12T09:49:16.153Z,1.98
2023-03-12T09:51:47.457Z,2.00
2023-03-12T09:54:23.788Z,1.80
2023-03-12T09:56:55.187Z,2.28
2023-03-12T09:59:22.907Z,1.98
2023-03-12T10:01:55.226Z,1.73
2023-03-12T10:05:05.184Z,2.00
2023-03-12T10:07:38.984Z,1.75
2023-03-12T10:10:24.388Z,2.10
2023-03-12T10:13:12.367Z,2.35
2023-03-12T10:16:05.751Z,2.20
2023-03-12T10:18:48.490Z,2.05
2023-03-12T10:21:29.625Z,1.70
2023-03-12T10:23:56.633Z,2.80
2023-03-12T10:26:25.783Z,2.55
2023-03-12T10:29:04.028Z,1.80
2023-03-12T10:32:04.767Z,1.70
2023-03-12T10:34:39.357Z,1.77
2023-03-12T10:37:31.759Z,2.30
2023-03-12T10:40:01.062Z,1.95
2023-03-12T10:42:30.063Z,2.30
2023-03-12T10:45:20.285Z,2.50
2023-03-12T10:47:57.310Z,2.53
2023-03-12T10:50:27.784Z,2.47
2023-03-12T10:53:30.475Z,1.90
2023-03-12T10:56:06.397Z,2.13
2023-03-12T10:58:39.473Z,1.95
2023-03-12T11:01:21.290Z,2.00
2023-03-12T11:03:48.640Z,2.13
2023-03-12T11:06:30.689Z,2.38
2023-03-12T11:09:16.576Z,3.05
2023-03-12T11:11:47.729Z,1.73
2023-03-12T11:14:26.606Z,2.00
2023-03-12T11:16:55.251Z,1.48
2023-03-12T11:19:31.894Z,1.98
2023-03-12T11:22:05.573Z,2.30
2023-03-12T11:24:32.935Z,1.70
2023-03-12T11:27:07.988Z,1.95
2023-03-12T11:29:40.297Z,1.67
2023-03-12T11:32:30.196Z,1.65
2023-03-12T11:34:57.691Z,1.98
2023-03-12T11:37:34.604Z,1.92
2023-03-12T11:40:30.837Z,1.80
2023-03-12T11:43:29.244Z,2.10
2023-03-12T11:46:32.321Z,2.70
2023-03-12T11:51:51.582Z,2.33
2023-03-12T11:54:50.725Z,2.25
2023-03-12T11:57:42.989Z,2.35
2023-03-12T12:00:20.600Z,2.38
2023-03-12T12:02:53.358Z,2.35
2023-03-12T12:05:42.012Z,1.77
2023-03-12T12:08:09.049Z,2.13
2023-03-12T12:10:42.422Z,2.00
2023-03-12T12:13:27.147Z,2.20
2023-03-12T12:16:18.318Z,1.60
2023-03-12T12:19:22.826Z,2.10
2023-03-12T12:21:49.815Z,1.98
2023-03-12T12:24:22.875Z,2.00
2023-03-12T12:26:53.708Z,1.85
2023-03-12T12:29:50.339Z,1.80
2023-03-12T12:32:38.048Z,2.05
2023-03-12T12:35:17.831Z,1.98
2023-03-12T12:37:50.356Z,2.67
2023-03-12T12:40:54.799Z,2.00
2023-03-12T12:43:24.430Z,2.97
2023-03-12T12:45:54.044Z,2.40
2023-03-12T12:48:27.316Z,3.20
2023-03-12T12:50:55.771Z,2.78
2023-03-12T12:53:35.757Z,3.13
2023-03-12T12:56:08.402Z,2.45
2023-03-12T12:58:38.433Z,2.75
2023-03-12T13:01:06.291Z,2.28
2023-03-12T13:03:33.710Z,2.53
2023-03-12T13:06:03.510Z,2.75
2023-03-12T13:08:43.090Z,2.42
2023-03-12T13:11:20.119Z,2.47
2023-03-12T13:14:03.748Z,2.50
2023-03-12T13:16:38.783Z,2.65
2023-03-12T13:19:14.979Z,2.42
2023-03-12T13:21:55.709Z,2.42
2023-03-12T13:24:26.680Z,2.63
2023-03-12T13:27:02.386Z,3.20
2023-03-12T13:29:29.430Z,3.13
2023-03-12T13:31:57.254Z,2.17
2023-03-12T13:34:28.131Z,2.83
2023-03-12T13:37:03.239Z,2.63
2023-03-12T13:39:36.043Z,2.42
2023-03-12T13:42:37.060Z,3.00
2023-03-12T13:45:26.103Z,2.70
2023-03-12T13:47:58.871Z,3.60
2023-03-12T13:50:27.258Z,2.70
2023-03-12T13:53:22.442Z,3.33
2023-03-12T13:56:10.871Z,3.10
2023-03-12T13:58:50.581Z,3.05
2023-03-12T14:01:24.272Z,3.53
2023-03-12T14:03:58.541Z,3.40
2023-03-12T14:06:30.331Z,2.97
2023-03-12T14:09:40.303Z,2.30
2023-03-12T14:12:22.633Z,2.45
2023-03-12T14:15:31.236Z,3.38
2023-03-12T14:18:12.110Z,3.65
2023-03-12T14:20:40.097Z,2.90
2023-03-12T14:23:13.037Z,2.67
2023-03-12T14:25:44.121Z,3.42
2023-03-12T14:28:21.178Z,3.78
2023-03-12T14:31:17.348Z,2.75
2023-03-12T14:36:39.549Z,3.33
2023-03-12T14:39:21.362Z,3.65
2023-03-12T14:42:00.211Z,3.20
2023-03-12T14:44:29.513Z,3.60
2023-03-12T14:47:04.611Z,3.55
2023-03-12T14:49:32.452Z,4.28
2023-03-12T14:51:59.725Z,3.00
2023-03-12T14:54:28.838Z,3.05
2023-03-12T14:56:56.079Z,2.90
2023-03-12T14:59:32.161Z,2.70
2023-03-12T15:02:01.129Z,3.33
2023-03-12T15:04:29.701Z,2.80
2023-03-12T15:06:59.872Z,3.20
2023-03-12T15:09:30.394Z,2.88
2023-03-12T15:12:25.051Z,3.38
2023-03-12T15:14:57.900Z,3.10
2023-03-12T15:17:29.185Z,3.03
2023-03-12T15:19:57.515Z,3.15
2023-03-12T15:22:27.971Z,3.15
2023-03-12T15:24:55.087Z,3.63
2023-03-12T15:27:30.532Z,3.15
2023-03-12T15:32:27.132Z,3.20
2023-03-12T15:34:59.165Z,3.42
2023-03-12T15:37:38.323Z,3.33
2023-03-12T15:40:17.809Z,3.10
2023-03-12T15:42:47.290Z,2.63
2023-03-12T15:45:38.812Z,3.50
2023-03-12T15:48:23.720Z,3.60
2023-03-12T15:50:50.790Z,3.92
2023-03-12T15:53:17.760Z,3.35
2023-03-12T15:56:05.711Z,3.13
2023-03-12T15:59:03.982Z,3.22
2023-03-12T16:01:43.540Z,3.03
2023-03-12T16:04:10.554Z,3.58
2023-03-12T16:06:37.759Z,3.17
2023-03-12T16:09:05.465Z,2.70
2023-03-12T16:11:36.222Z,3.03
2023-03-12T16:14:13.614Z,3.08
2023-03-12T16:16:40.893Z,3.22
2023-03-12T16:19:17.142Z,2.95
2023-03-12T16:21:44.885Z,3.10
2023-03-12T16:24:12.668Z,3.33
2023-03-12T16:26:52.236Z,3.38
2023-03-12T16:29:20.688Z,3.55
2023-03-12T16:31:55.592Z,3.92
2023-03-12T16:34:22.918Z,3.67
2023-03-12T16:36:50.168Z,3.33
2023-03-12T16:39:18.916Z,3.10
2023-03-12T16:41:47.016Z,4.05
2023-03-12T16:44:21.622Z,3.75
2023-03-12T16:46:48.809Z,4.15
2023-03-12T16:49:18.140Z,3.80
2023-03-12T16:51:45.287Z,4.05
2023-03-12T16:54:12.697Z,4.35
2023-03-12T16:56:46.403Z,3.72
2023-03-12T16:59:25.633Z,2.80
2023-03-12T17:01:53.045Z,3.28
2023-03-12T17:04:20.471Z,3.35
2023-03-12T17:06:47.623Z,3.47
2023-03-12T17:09:14.836Z,3.60
2023-03-12T17:11:41.985Z,3.38
2023-03-12T17:14:22.066Z,3.45
2023-03-12T17:16:49.530Z,3.03
2023-03-12T17:19:17.100Z,3.30
2023-03-12T17:21:44.612Z,3.35
2023-03-12T17:24:14.182Z,3.05
2023-03-12T17:26:42.581Z,3.28
2023-03-12T17:29:09.721Z,3.65
2023-03-12T17:31:37.822Z,3.53
2023-03-12T17:34:05.570Z,3.15
2023-03-12T17:36:36.890Z,3.03
2023-03-12T17:39:04.637Z,3.00
2023-03-12T17:41:32.918Z,3.20
2023-03-12T17:44:02.254Z,3.10
2023-03-12T17:46:30.918Z,3.38
2023-03-12T17:48:58.073Z,3.60
2023-03-12T17:51:25.731Z,3.22
2023-03-12T17:53:53.739Z,3.33
2023-03-12T17:56:20.996Z,2.55
2023-03-12T17:58:48.081Z,3.80
2023-03-12T18:01:16.065Z,3.17
2023-03-12T18:03:44.231Z,4.20
2023-03-12T18:06:11.869Z,3.30
2023-03-12T18:08:39.169Z,3.97
2023-03-12T18:11:06.212Z,3.70
2023-03-12T18:13:33.331Z,3.58
2023-03-12T18:16:00.529Z,3.35
2023-03-12T18:18:27.889Z,3.53
2023-03-12T18:20:55.159Z,3.38
2023-03-12T18:23:23.782Z,3.25
2023-03-12T18:25:51.059Z,3.08
2023-03-12T18:28:18.177Z,3.53
2023-03-12T18:30:46.874Z,2.85
2023-03-12T18:33:14.822Z,3.58
2023-03-12T18:35:43.841Z,3.08
2023-03-12T18:38:11.117Z,3.90
2023-03-12T18:40:38.348Z,2.90
2023-03-12T18:43:05.519Z,3.60
2023-03-12T18:45:32.633Z,3.60
2023-03-12T18:47:59.734Z,4.20
2023-03-12T18:50:26.986Z,3.97
2023-03-12T18:52:54.122Z,4.60
2023-03-12T18:55:21.252Z,4.38
2023-03-12T18:57:48.448Z,4.53
2023-03-12T19:00:19.676Z,5.03
2023-03-12T19:02:48.132Z,4.53
2023-03-12T19:05:15.920Z,4.50
2023-03-12T19:07:43.340Z,5.97
2023-03-12T19:10:11.589Z,5.97
2023-03-12T19:12:50.860Z,5.63
2023-03-12T19:15:19.305Z,5.57
2023-03-12T19:17:46.468Z,6.00
2023-03-12T19:20:14.208Z,5.75
2023-03-12T19:22:41.418Z,5.93
2023-03-12T19:25:08.865Z,6.45
2023-03-12T19:27:36.037Z,7.85
2023-03-12T19:30:03.170Z,5.97
2023-03-12T19:32:42.034Z,5.85
2023-03-12T19:35:11.853Z,6.03
2023-03-12T19:37:38.981Z,5.35
2023-03-12T19:40:06.743Z,5.55
2023-03-12T19:42:34.095Z,5.70
2023-03-12T19:45:01.050Z,5.90
2023-03-12T19:47:28.261Z,7.38
2023-03-12T19:49:55.217Z,7.45
2023-03-12T19:52:22.241Z,8.35
2023-03-12T19:55:03.221Z,9.20
2023-03-12T19:57:31.077Z,8.32
2023-03-12T19:59:58.089Z,9.38
2023-03-12T20:02:26.170Z,10.48
2023-03-12T20:04:53.305Z,8.52
2023-03-12T20:07:20.272Z,8.52
2023-03-12T20:09:47.252Z,8.85
2023-03-12T20:12:14.377Z,8.90
2023-03-12T20:14:42.788Z,9.40
2023-03-12T20:17:10.087Z,7.78
2023-03-12T20:19:38.601Z,9.27
2023-03-12T20:22:06.220Z,8.95
2023-03-12T20:24:33.180Z,8.70
2023-03-12T20:27:00.287Z,9.52
2023-03-12T20:29:27.569Z,10.85
2023-03-12T20:31:54.743Z,11.20
2023-03-12T20:34:21.753Z,9.18
2023-03-12T20:36:48.748Z,7.60
2023-03-12T20:39:15.766Z,8.90
2023-03-12T20:41:42.758Z,6.55
2023-03-12T20:44:09.817Z,6.88
2023-03-12T20:46:36.754Z,5.53
2023-03-12T20:49:03.726Z,5.88
2023-03-12T20:51:31.624Z,5.28
2023-03-12T20:53:58.874Z,6.43
2023-03-12T20:56:25.994Z,6.47
2023-03-12T20:58:53.879Z,6.57
2023-03-12T21:01:20.897Z,6.80
2023-03-12T21:03:47.931Z,6.53
2023-03-12T21:06:14.970Z,6.22
2023-03-12T21:08:42.002Z,6.63
2023-03-12T21:11:10.046Z,7.40
2023-03-12T21:13:37.178Z,7.43
2023-03-12T21:16:08.907Z,8.30
2023-03-12T21:18:35.897Z,7.90
2023-03-12T21:21:04.889Z,9.02
2023-03-12T21:23:33.004Z,8.30
2023-03-12T21:26:02.814Z,8.20
2023-03-12T21:28:29.809Z,8.68
2023-03-12T21:31:05.444Z,8.63
2023-03-12T21:33:32.496Z,8.00
2023-03-12T21:35:59.555Z,9.73
2023-03-12T21:38:26.621Z,8.70
2023-03-12T21:40:54.408Z,8.55
2023-03-12T21:43:21.407Z,8.45
2023-03-12T21:45:48.367Z,8.68
2023-03-12T21:48:15.457Z,9.52
2023-03-12T21:50:42.422Z,9.10
2023-03-12T21:53:22.662Z,9.25
2023-03-12T21:55:57.684Z,12.18
2023-03-12T21:58:24.768Z,12.15
2023-03-12T22:00:52.085Z,12.02
2023-03-12T22:03:19.094Z,10.05
2023-03-12T22:05:52.130Z,11.15
2023-03-12T22:08:19.180Z,12.02
2023-03-12T22:10:46.150Z,13.23
2023-03-12T22:13:13.135Z,11.60
2023-03-12T22:15:40.116Z,12.35
2023-03-12T22:18:07.190Z,11.45
2023-03-12T22:20:34.481Z,10.98
2023-03-12T22:23:01.500Z,9.90
2023-03-12T22:25:28.586Z,9.63
2023-03-12T22:27:55.623Z,9.60
2023-03-12T22:30:22.698Z,10.10
2023-03-12T22:32:49.691Z,9.55
2023-03-12T22:35:16.812Z,9.52
2023-03-12T22:37:45.364Z,10.68
2023-03-12T22:40:12.848Z,8.82
2023-03-12T22:42:41.185Z,9.45
2023-03-12T22:45:08.812Z,8.90
2023-03-12T22:47:35.784Z,9.48
2023-03-12T22:50:02.794Z,9.57
2023-03-12T22:52:29.841Z,8.52
2023-03-12T22:54:56.867Z,8.68
2023-03-12T22:57:23.901Z,7.10
2023-03-12T22:59:50.847Z,7.05
2023-03-12T23:02:17.837Z,6.43
2023-03-12T23:04:44.944Z,7.30
2023-03-12T23:07:14.808Z,6.05
2023-03-12T23:09:43.505Z,12.55
2023-03-12T23:12:10.492Z,12.75
2023-03-12T23:14:37.496Z,11.35
2023-03-12T23:17:04.532Z,9.77
2023-03-12T23:19:34.849Z,9.48
2023-03-12T23:22:02.319Z,8.10
2023-03-12T23:24:32.295Z,8.25
2023-03-12T23:26:59.310Z,8.90
2023-03-12T23:29:26.668Z,9.80
2023-03-12T23:31:53.643Z,8.57
2023-03-12T23:34:20.776Z,7.78
2023-03-12T23:36:47.869Z,8.70
2023-03-12T23:39:14.962Z,8.88
2023-03-12T23:41:41.936Z,8.48
2023-03-12T23:44:08.916Z,7.68
2023-03-12T23:46:35.953Z,6.18
2023-03-12T23:49:02.952Z,4.80
2023-03-12T23:51:32.389Z,5.97
2023-03-12T23:54:05.488Z,6.25
2023-03-12T23:56:35.457Z,6.53
2023-03-12T23:59:03.363Z,5.35
